SCFA

Details ICAO SCFA (ANF)
Name CERRO MORENO INTL
Region Chile
Timezone America/Santiago (UTC-3.0)
Plans Departing 150
Arriving 163
Stats Elevation 455 ft / 139 m (AMSL)
Location -23.444500° -70.445100°
Runways 1
Magnetic Variation 3.801° W
Sunrise 2019-09-15 10:40:14 UTC / 2019-09-15 07:40:14 Local
Sunset 2019-09-15 22:36:48 UTC / 2019-09-15 19:36:48 Local
Advertisement - Login to hide

Runways

ID Width Length Bearing (true/mag) Surface Threshold Overrun Markings Lighting
01 164 ft / 50 m 8,567 ft / 2,611 m 6.86° / 10.66° ASPHALT 0 ft / 0 m 50 ft / 15 m APP EDGE THRESHOLD MALS REIL-OMNI
19 164 ft / 50 m 8,567 ft / 2,611 m 186.86° / 190.66° ASPHALT 0 ft / 0 m 155 ft / 47 m APP EDGE THRESHOLD REIL-OMNI

Map

Weather


0- 5 10 15 20 25 30 35+ Temperature / °C

Clouds and Precipitation
Forecast for 2019-09-15 18:00 UTC. Updated an hour ago

Ground ~20,000 ft ~40,000 ft Winds

METAR

SCFA 151600Z 21014KT 9999 BKN026 15/08 Q1018 NOSIG

TAF

TAF SCFA 151030Z 1512/1612 19010KT 9999 BKN020 TX16/1517Z TN13/1606Z BECMG 1515/1517 21015KT FEW017 BECMG 1522/1524 BKN018 BECMG 1602/1604 19010KT BECMG 1610/1612 17004KT BKN015

Frequencies

Tower 118.10 MHz ANTOFAGASTA TWR
Approach 120.90 MHz ANTOFAGASTA APP
Approach 119.30 MHz ANTOFAGASTA APP
Ground 121.90 MHz
Warning: Do not use this data for real-world aviation or navigation. No guarantee of current accuracy is given.